sensor_id;sensor_type;location;lat;lon;timestamp;P1;durP1;ratioP1;P2;durP2;ratioP2
61413;SDS011;47279;52.426;10.488;2022-12-07T00:00:19;5.43;;;4.50;;
61413;SDS011;47279;52.426;10.488;2022-12-07T00:02:45;5.60;;;4.78;;
61413;SDS011;47279;52.426;10.488;2022-12-07T00:05:11;5.88;;;5.28;;
61413;SDS011;47279;52.426;10.488;2022-12-07T00:07:37;6.03;;;5.07;;
61413;SDS011;47279;52.426;10.488;2022-12-07T00:10:03;5.80;;;5.07;;
61413;SDS011;47279;52.426;10.488;2022-12-07T00:12:29;5.85;;;4.85;;
61413;SDS011;47279;52.426;10.488;2022-12-07T00:14:55;5.65;;;4.70;;
61413;SDS011;47279;52.426;10.488;2022-12-07T00:17:21;6.03;;;4.85;;
61413;SDS011;47279;52.426;10.488;2022-12-07T00:19:47;4.90;;;4.40;;
61413;SDS011;47279;52.426;10.488;2022-12-07T00:22:13;5.20;;;4.60;;
61413;SDS011;47279;52.426;10.488;2022-12-07T00:24:39;6.28;;;5.10;;
61413;SDS011;47279;52.426;10.488;2022-12-07T00:27:05;6.07;;;5.18;;
61413;SDS011;47279;52.426;10.488;2022-12-07T00:29:31;6.10;;;4.93;;
61413;SDS011;47279;52.426;10.488;2022-12-07T00:31:57;6.07;;;4.70;;
61413;SDS011;47279;52.426;10.488;2022-12-07T00:34:23;5.13;;;4.63;;
61413;SDS011;47279;52.426;10.488;2022-12-07T00:36:49;4.90;;;4.40;;
61413;SDS011;47279;52.426;10.488;2022-12-07T00:39:15;5.78;;;4.60;;
61413;SDS011;47279;52.426;10.488;2022-12-07T00:41:41;5.68;;;4.75;;
61413;SDS011;47279;52.426;10.488;2022-12-07T00:44:07;5.95;;;5.35;;
61413;SDS011;47279;52.426;10.488;2022-12-07T00:46:34;5.30;;;4.80;;
61413;SDS011;47279;52.426;10.488;2022-12-07T00:48:59;5.32;;;4.82;;
61413;SDS011;47279;52.426;10.488;2022-12-07T00:51:26;5.05;;;4.38;;
61413;SDS011;47279;52.426;10.488;2022-12-07T00:53:52;5.95;;;4.70;;
61413;SDS011;47279;52.426;10.488;2022-12-07T00:56:22;5.60;;;4.70;;
61413;SDS011;47279;52.426;10.488;2022-12-07T01:01:14;6.18;;;5.57;;
61413;SDS011;47279;52.426;10.488;2022-12-07T01:03:40;5.68;;;5.07;;
61413;SDS011;47279;52.426;10.488;2022-12-07T01:06:06;5.38;;;4.88;;
61413;SDS011;47279;52.426;10.488;2022-12-07T01:08:32;5.53;;;4.82;;
61413;SDS011;47279;52.426;10.488;2022-12-07T01:13:24;5.40;;;4.85;;
61413;SDS011;47279;52.426;10.488;2022-12-07T01:15:50;5.68;;;4.43;;
61413;SDS011;47279;52.426;10.488;2022-12-07T01:18:16;5.63;;;4.68;;
61413;SDS011;47279;52.426;10.488;2022-12-07T01:20:42;5.57;;;4.97;;
61413;SDS011;47279;52.426;10.488;2022-12-07T01:23:08;5.80;;;5.03;;
61413;SDS011;47279;52.426;10.488;2022-12-07T01:25:34;5.90;;;4.95;;
61413;SDS011;47279;52.426;10.488;2022-12-07T01:28:00;5.70;;;4.50;;
61413;SDS011;47279;52.426;10.488;2022-12-07T01:30:26;5.95;;;4.72;;
61413;SDS011;47279;52.426;10.488;2022-12-07T01:32:52;7.22;;;5.43;;
61413;SDS011;47279;52.426;10.488;2022-12-07T01:35:18;5.38;;;4.85;;
61413;SDS011;47279;52.426;10.488;2022-12-07T01:37:44;5.88;;;4.63;;
61413;SDS011;47279;52.426;10.488;2022-12-07T01:40:10;5.82;;;5.18;;
61413;SDS011;47279;52.426;10.488;2022-12-07T01:42:36;5.10;;;4.32;;
61413;SDS011;47279;52.426;10.488;2022-12-07T01:47:45;6.85;;;5.20;;
61413;SDS011;47279;52.426;10.488;2022-12-07T01:50:12;6.13;;;5.38;;
61413;SDS011;47279;52.426;10.488;2022-12-07T01:52:39;6.60;;;5.47;;
61413;SDS011;47279;52.426;10.488;2022-12-07T01:55:09;6.95;;;5.60;;
61413;SDS011;47279;52.426;10.488;2022-12-07T01:57:37;5.15;;;4.57;;
61413;SDS011;47279;52.426;10.488;2022-12-07T02:00:04;6.28;;;5.35;;
61413;SDS011;47279;52.426;10.488;2022-12-07T02:02:33;6.25;;;5.10;;
61413;SDS011;47279;52.426;10.488;2022-12-07T02:05:00;5.63;;;5.03;;
61413;SDS011;47279;52.426;10.488;2022-12-07T02:07:27;6.88;;;5.57;;
61413;SDS011;47279;52.426;10.488;2022-12-07T02:09:53;6.28;;;5.32;;
61413;SDS011;47279;52.426;10.488;2022-12-07T02:12:19;5.25;;;4.63;;
61413;SDS011;47279;52.426;10.488;2022-12-07T02:14:46;6.63;;;5.25;;
61413;SDS011;47279;52.426;10.488;2022-12-07T02:20:59;6.82;;;5.20;;
61413;SDS011;47279;52.426;10.488;2022-12-07T02:28:35;6.15;;;5.40;;
61413;SDS011;47279;52.426;10.488;2022-12-07T02:31:06;6.68;;;4.95;;
61413;SDS011;47279;52.426;10.488;2022-12-07T02:33:40;7.53;;;5.68;;
61413;SDS011;47279;52.426;10.488;2022-12-07T02:36:12;6.03;;;5.25;;
61413;SDS011;47279;52.426;10.488;2022-12-07T02:38:54;7.10;;;5.47;;
61413;SDS011;47279;52.426;10.488;2022-12-07T02:43:48;6.43;;;5.65;;
61413;SDS011;47279;52.426;10.488;2022-12-07T02:46:26;6.18;;;5.00;;
61413;SDS011;47279;52.426;10.488;2022-12-07T02:48:53;6.43;;;5.78;;
61413;SDS011;47279;52.426;10.488;2022-12-07T02:51:20;6.28;;;5.25;;
61413;SDS011;47279;52.426;10.488;2022-12-07T02:53:46;6.32;;;5.55;;
61413;SDS011;47279;52.426;10.488;2022-12-07T02:58:49;6.07;;;5.18;;
61413;SDS011;47279;52.426;10.488;2022-12-07T03:01:24;6.78;;;5.55;;
61413;SDS011;47279;52.426;10.488;2022-12-07T03:03:56;6.45;;;5.43;;
61413;SDS011;47279;52.426;10.488;2022-12-07T03:06:27;5.90;;;5.07;;
61413;SDS011;47279;52.426;10.488;2022-12-07T03:09:14;5.70;;;4.85;;
61413;SDS011;47279;52.426;10.488;2022-12-07T03:11:48;6.05;;;5.15;;
61413;SDS011;47279;52.426;10.488;2022-12-07T03:14:17;6.07;;;5.22;;
61413;SDS011;47279;52.426;10.488;2022-12-07T03:17:07;6.22;;;5.63;;
61413;SDS011;47279;52.426;10.488;2022-12-07T03:19:31;6.10;;;4.93;;
61413;SDS011;47279;52.426;10.488;2022-12-07T03:22:09;6.03;;;5.43;;
61413;SDS011;47279;52.426;10.488;2022-12-07T03:24:37;5.65;;;4.40;;
61413;SDS011;47279;52.426;10.488;2022-12-07T03:27:06;6.13;;;5.15;;
61413;SDS011;47279;52.426;10.488;2022-12-07T03:29:38;5.55;;;4.85;;
61413;SDS011;47279;52.426;10.488;2022-12-07T03:32:11;5.50;;;4.95;;
61413;SDS011;47279;52.426;10.488;2022-12-07T03:34:40;6.53;;;4.97;;
61413;SDS011;47279;52.426;10.488;2022-12-07T03:37:09;6.13;;;5.00;;
61413;SDS011;47279;52.426;10.488;2022-12-07T03:42:17;5.88;;;4.63;;
61413;SDS011;47279;52.426;10.488;2022-12-07T03:44:43;6.43;;;5.10;;
61413;SDS011;47279;52.426;10.488;2022-12-07T03:47:15;5.53;;;4.80;;
61413;SDS011;47279;52.426;10.488;2022-12-07T03:49:45;7.22;;;5.35;;
61413;SDS011;47279;52.426;10.488;2022-12-07T03:52:19;6.28;;;4.65;;
61413;SDS011;47279;52.426;10.488;2022-12-07T03:55:02;4.90;;;4.40;;
61413;SDS011;47279;52.426;10.488;2022-12-07T03:57:29;4.88;;;4.32;;
61413;SDS011;47279;52.426;10.488;2022-12-07T03:59:56;5.18;;;4.57;;
61413;SDS011;47279;52.426;10.488;2022-12-07T04:02:23;5.00;;;4.18;;
61413;SDS011;47279;52.426;10.488;2022-12-07T04:04:49;4.90;;;4.40;;
61413;SDS011;47279;52.426;10.488;2022-12-07T04:07:15;5.15;;;4.47;;
61413;SDS011;47279;52.426;10.488;2022-12-07T04:09:41;5.10;;;4.60;;
61413;SDS011;47279;52.426;10.488;2022-12-07T04:12:07;4.80;;;4.30;;
61413;SDS011;47279;52.426;10.488;2022-12-07T04:14:33;4.90;;;4.32;;
61413;SDS011;47279;52.426;10.488;2022-12-07T04:16:59;4.43;;;3.72;;
61413;SDS011;47279;52.426;10.488;2022-12-07T04:19:26;4.55;;;4.05;;
61413;SDS011;47279;52.426;10.488;2022-12-07T04:21:52;4.70;;;3.95;;
61413;SDS011;47279;52.426;10.488;2022-12-07T04:24:19;4.68;;;4.03;;
61413;SDS011;47279;52.426;10.488;2022-12-07T04:26:45;4.22;;;3.55;;
61413;SDS011;47279;52.426;10.488;2022-12-07T04:29:11;5.40;;;4.25;;
61413;SDS011;47279;52.426;10.488;2022-12-07T04:31:37;4.70;;;3.70;;
61413;SDS011;47279;52.426;10.488;2022-12-07T04:34:03;4.47;;;3.95;;
61413;SDS011;47279;52.426;10.488;2022-12-07T04:36:30;4.50;;;4.10;;
61413;SDS011;47279;52.426;10.488;2022-12-07T04:38:56;4.40;;;3.90;;
61413;SDS011;47279;52.426;10.488;2022-12-07T04:41:23;4.32;;;3.85;;
61413;SDS011;47279;52.426;10.488;2022-12-07T04:43:58;4.32;;;3.85;;
61413;SDS011;47279;52.426;10.488;2022-12-07T04:46:25;4.55;;;3.95;;
61413;SDS011;47279;52.426;10.488;2022-12-07T04:48:52;4.18;;;3.78;;
61413;SDS011;47279;52.426;10.488;2022-12-07T04:51:20;4.47;;;3.90;;
61413;SDS011;47279;52.426;10.488;2022-12-07T04:53:46;4.68;;;3.80;;
61413;SDS011;47279;52.426;10.488;2022-12-07T04:56:12;4.78;;;3.95;;
61413;SDS011;47279;52.426;10.488;2022-12-07T04:58:38;4.35;;;3.90;;
61413;SDS011;47279;52.426;10.488;2022-12-07T05:01:04;4.70;;;3.90;;
61413;SDS011;47279;52.426;10.488;2022-12-07T05:03:30;3.97;;;3.60;;
61413;SDS011;47279;52.426;10.488;2022-12-07T05:05:56;4.80;;;3.60;;
61413;SDS011;47279;52.426;10.488;2022-12-07T05:08:22;4.53;;;3.60;;
61413;SDS011;47279;52.426;10.488;2022-12-07T05:10:48;4.10;;;3.55;;
61413;SDS011;47279;52.426;10.488;2022-12-07T05:13:14;4.55;;;3.63;;
61413;SDS011;47279;52.426;10.488;2022-12-07T05:15:40;3.60;;;3.28;;
61413;SDS011;47279;52.426;10.488;2022-12-07T05:18:08;4.70;;;3.75;;
61413;SDS011;47279;52.426;10.488;2022-12-07T05:20:34;3.70;;;3.33;;
61413;SDS011;47279;52.426;10.488;2022-12-07T05:23:00;3.92;;;3.40;;
61413;SDS011;47279;52.426;10.488;2022-12-07T05:25:26;4.07;;;3.50;;
61413;SDS011;47279;52.426;10.488;2022-12-07T05:27:53;4.03;;;3.47;;
61413;SDS011;47279;52.426;10.488;2022-12-07T05:30:20;4.07;;;3.33;;
61413;SDS011;47279;52.426;10.488;2022-12-07T05:32:46;4.20;;;3.30;;
61413;SDS011;47279;52.426;10.488;2022-12-07T05:35:12;3.90;;;3.50;;
61413;SDS011;47279;52.426;10.488;2022-12-07T05:37:38;5.88;;;3.38;;
61413;SDS011;47279;52.426;10.488;2022-12-07T05:40:04;4.15;;;3.13;;
61413;SDS011;47279;52.426;10.488;2022-12-07T05:42:30;4.10;;;3.45;;
61413;SDS011;47279;52.426;10.488;2022-12-07T05:44:56;4.32;;;3.50;;
61413;SDS011;47279;52.426;10.488;2022-12-07T05:47:22;4.45;;;3.03;;
61413;SDS011;47279;52.426;10.488;2022-12-07T05:49:48;4.05;;;3.40;;
61413;SDS011;47279;52.426;10.488;2022-12-07T05:52:14;3.97;;;3.58;;
61413;SDS011;47279;52.426;10.488;2022-12-07T05:54:40;4.63;;;3.42;;
61413;SDS011;47279;52.426;10.488;2022-12-07T05:57:06;4.45;;;3.50;;
61413;SDS011;47279;52.426;10.488;2022-12-07T05:59:32;3.50;;;3.20;;
61413;SDS011;47279;52.426;10.488;2022-12-07T06:01:59;3.22;;;2.92;;
61413;SDS011;47279;52.426;10.488;2022-12-07T06:04:26;3.90;;;3.50;;
61413;SDS011;47279;52.426;10.488;2022-12-07T06:06:52;3.72;;;3.33;;
61413;SDS011;47279;52.426;10.488;2022-12-07T06:09:19;3.67;;;3.20;;
61413;SDS011;47279;52.426;10.488;2022-12-07T06:11:45;3.28;;;2.80;;
61413;SDS011;47279;52.426;10.488;2022-12-07T06:14:30;3.50;;;3.13;;
61413;SDS011;47279;52.426;10.488;2022-12-07T06:16:56;3.53;;;2.88;;
61413;SDS011;47279;52.426;10.488;2022-12-07T06:19:22;3.20;;;2.83;;
61413;SDS011;47279;52.426;10.488;2022-12-07T06:21:48;4.68;;;2.67;;
61413;SDS011;47279;52.426;10.488;2022-12-07T06:24:15;2.92;;;2.53;;
61413;SDS011;47279;52.426;10.488;2022-12-07T06:26:41;3.70;;;3.08;;
61413;SDS011;47279;52.426;10.488;2022-12-07T06:29:07;4.18;;;3.50;;
61413;SDS011;47279;52.426;10.488;2022-12-07T06:31:33;3.38;;;2.95;;
61413;SDS011;47279;52.426;10.488;2022-12-07T06:34:01;3.75;;;3.35;;
61413;SDS011;47279;52.426;10.488;2022-12-07T06:36:27;3.20;;;2.65;;
61413;SDS011;47279;52.426;10.488;2022-12-07T06:38:53;3.00;;;2.70;;
61413;SDS011;47279;52.426;10.488;2022-12-07T06:41:19;3.42;;;2.83;;
61413;SDS011;47279;52.426;10.488;2022-12-07T06:43:45;3.13;;;2.70;;
61413;SDS011;47279;52.426;10.488;2022-12-07T06:46:12;3.20;;;2.78;;
61413;SDS011;47279;52.426;10.488;2022-12-07T06:48:37;3.33;;;2.88;;
61413;SDS011;47279;52.426;10.488;2022-12-07T06:51:03;3.40;;;2.80;;
61413;SDS011;47279;52.426;10.488;2022-12-07T06:53:29;2.72;;;2.50;;
61413;SDS011;47279;52.426;10.488;2022-12-07T06:55:55;3.38;;;2.95;;
61413;SDS011;47279;52.426;10.488;2022-12-07T06:58:21;4.75;;;3.20;;
61413;SDS011;47279;52.426;10.488;2022-12-07T07:00:48;3.15;;;2.63;;
61413;SDS011;47279;52.426;10.488;2022-12-07T07:03:15;2.85;;;2.60;;
61413;SDS011;47279;52.426;10.488;2022-12-07T07:05:41;3.08;;;2.65;;
61413;SDS011;47279;52.426;10.488;2022-12-07T07:08:07;3.38;;;2.80;;
61413;SDS011;47279;52.426;10.488;2022-12-07T07:10:33;2.88;;;2.40;;
61413;SDS011;47279;52.426;10.488;2022-12-07T07:12:59;2.80;;;2.38;;
61413;SDS011;47279;52.426;10.488;2022-12-07T07:15:25;2.60;;;2.40;;
61413;SDS011;47279;52.426;10.488;2022-12-07T07:17:51;3.05;;;2.40;;
61413;SDS011;47279;52.426;10.488;2022-12-07T07:20:17;3.38;;;2.40;;
61413;SDS011;47279;52.426;10.488;2022-12-07T07:22:43;3.65;;;2.65;;
61413;SDS011;47279;52.426;10.488;2022-12-07T07:25:09;2.83;;;2.55;;
61413;SDS011;47279;52.426;10.488;2022-12-07T07:27:35;3.58;;;2.65;;
61413;SDS011;47279;52.426;10.488;2022-12-07T07:30:01;2.78;;;2.08;;
61413;SDS011;47279;52.426;10.488;2022-12-07T07:32:27;3.20;;;2.70;;
61413;SDS011;47279;52.426;10.488;2022-12-07T07:34:53;2.90;;;2.65;;
61413;SDS011;47279;52.426;10.488;2022-12-07T07:37:19;3.58;;;2.17;;
61413;SDS011;47279;52.426;10.488;2022-12-07T07:39:45;2.75;;;2.45;;
61413;SDS011;47279;52.426;10.488;2022-12-07T07:42:11;2.83;;;2.50;;
61413;SDS011;47279;52.426;10.488;2022-12-07T07:44:37;2.85;;;2.53;;
61413;SDS011;47279;52.426;10.488;2022-12-07T07:47:03;3.00;;;2.70;;
61413;SDS011;47279;52.426;10.488;2022-12-07T07:49:29;2.40;;;2.20;;
61413;SDS011;47279;52.426;10.488;2022-12-07T07:51:55;2.75;;;2.47;;
61413;SDS011;47279;52.426;10.488;2022-12-07T07:54:21;2.85;;;2.55;;
61413;SDS011;47279;52.426;10.488;2022-12-07T07:56:47;3.72;;;2.40;;
61413;SDS011;47279;52.426;10.488;2022-12-07T07:59:14;3.67;;;2.33;;
61413;SDS011;47279;52.426;10.488;2022-12-07T08:01:40;3.05;;;2.72;;
61413;SDS011;47279;52.426;10.488;2022-12-07T08:04:06;2.90;;;2.28;;
61413;SDS011;47279;52.426;10.488;2022-12-07T08:06:32;2.88;;;1.95;;
61413;SDS011;47279;52.426;10.488;2022-12-07T08:08:58;4.13;;;2.40;;
61413;SDS011;47279;52.426;10.488;2022-12-07T08:11:24;3.30;;;2.60;;
61413;SDS011;47279;52.426;10.488;2022-12-07T08:13:50;3.10;;;2.30;;
61413;SDS011;47279;52.426;10.488;2022-12-07T08:16:16;3.15;;;2.40;;
61413;SDS011;47279;52.426;10.488;2022-12-07T08:18:42;2.60;;;2.30;;
61413;SDS011;47279;52.426;10.488;2022-12-07T08:21:12;2.45;;;2.00;;
61413;SDS011;47279;52.426;10.488;2022-12-07T08:23:38;3.10;;;2.58;;
61413;SDS011;47279;52.426;10.488;2022-12-07T08:26:05;2.75;;;2.33;;
61413;SDS011;47279;52.426;10.488;2022-12-07T08:28:31;2.83;;;2.50;;
61413;SDS011;47279;52.426;10.488;2022-12-07T08:31:08;2.60;;;2.20;;
61413;SDS011;47279;52.426;10.488;2022-12-07T08:33:35;2.70;;;2.33;;
61413;SDS011;47279;52.426;10.488;2022-12-07T08:36:02;2.90;;;2.40;;
61413;SDS011;47279;52.426;10.488;2022-12-07T08:38:28;2.83;;;2.28;;
61413;SDS011;47279;52.426;10.488;2022-12-07T08:40:55;2.55;;;2.35;;
61413;SDS011;47279;52.426;10.488;2022-12-07T08:43:21;2.80;;;2.10;;
61413;SDS011;47279;52.426;10.488;2022-12-07T08:45:47;2.67;;;2.15;;
61413;SDS011;47279;52.426;10.488;2022-12-07T08:48:14;2.45;;;2.10;;
61413;SDS011;47279;52.426;10.488;2022-12-07T08:50:42;2.88;;;2.00;;
61413;SDS011;47279;52.426;10.488;2022-12-07T08:53:08;2.35;;;2.10;;
61413;SDS011;47279;52.426;10.488;2022-12-07T08:55:34;3.03;;;2.10;;
61413;SDS011;47279;52.426;10.488;2022-12-07T08:58:00;2.85;;;2.10;;
61413;SDS011;47279;52.426;10.488;2022-12-07T09:00:27;2.30;;;2.10;;
61413;SDS011;47279;52.426;10.488;2022-12-07T09:02:54;2.22;;;1.90;;
61413;SDS011;47279;52.426;10.488;2022-12-07T09:05:20;3.35;;;2.00;;
61413;SDS011;47279;52.426;10.488;2022-12-07T09:07:47;3.25;;;2.10;;
61413;SDS011;47279;52.426;10.488;2022-12-07T09:10:15;2.92;;;1.98;;
61413;SDS011;47279;52.426;10.488;2022-12-07T09:12:41;2.60;;;1.98;;
61413;SDS011;47279;52.426;10.488;2022-12-07T09:15:07;2.40;;;2.15;;
61413;SDS011;47279;52.426;10.488;2022-12-07T09:17:33;2.10;;;1.80;;
61413;SDS011;47279;52.426;10.488;2022-12-07T09:20:00;3.03;;;2.22;;
61413;SDS011;47279;52.426;10.488;2022-12-07T09:22:29;2.20;;;2.00;;
61413;SDS011;47279;52.426;10.488;2022-12-07T09:24:58;2.30;;;1.85;;
61413;SDS011;47279;52.426;10.488;2022-12-07T09:27:24;2.63;;;2.05;;
61413;SDS011;47279;52.426;10.488;2022-12-07T09:29:50;3.22;;;1.63;;
61413;SDS011;47279;52.426;10.488;2022-12-07T09:32:16;2.22;;;2.00;;
61413;SDS011;47279;52.426;10.488;2022-12-07T09:34:42;2.30;;;2.00;;
61413;SDS011;47279;52.426;10.488;2022-12-07T09:37:09;2.10;;;1.75;;
61413;SDS011;47279;52.426;10.488;2022-12-07T09:39:37;2.33;;;1.75;;
61413;SDS011;47279;52.426;10.488;2022-12-07T09:42:03;2.47;;;1.85;;
61413;SDS011;47279;52.426;10.488;2022-12-07T09:44:30;1.95;;;1.77;;
61413;SDS011;47279;52.426;10.488;2022-12-07T09:46:57;2.40;;;1.80;;
61413;SDS011;47279;52.426;10.488;2022-12-07T09:49:24;2.38;;;2.05;;
61413;SDS011;47279;52.426;10.488;2022-12-07T09:51:59;2.65;;;1.70;;
61413;SDS011;47279;52.426;10.488;2022-12-07T09:54:26;2.28;;;2.00;;
61413;SDS011;47279;52.426;10.488;2022-12-07T09:56:52;2.20;;;2.00;;
61413;SDS011;47279;52.426;10.488;2022-12-07T09:59:18;2.03;;;1.70;;
61413;SDS011;47279;52.426;10.488;2022-12-07T10:01:48;2.67;;;1.85;;
61413;SDS011;47279;52.426;10.488;2022-12-07T10:04:24;2.03;;;1.70;;
61413;SDS011;47279;52.426;10.488;2022-12-07T10:06:51;2.65;;;1.90;;
61413;SDS011;47279;52.426;10.488;2022-12-07T10:09:19;1.85;;;1.67;;
61413;SDS011;47279;52.426;10.488;2022-12-07T10:11:58;2.15;;;1.80;;
61413;SDS011;47279;52.426;10.488;2022-12-07T10:14:24;2.20;;;1.80;;
61413;SDS011;47279;52.426;10.488;2022-12-07T10:16:51;3.05;;;1.80;;
61413;SDS011;47279;52.426;10.488;2022-12-07T10:19:18;2.13;;;1.70;;
61413;SDS011;47279;52.426;10.488;2022-12-07T10:22:05;2.35;;;1.50;;
61413;SDS011;47279;52.426;10.488;2022-12-07T10:24:34;2.63;;;1.70;;
61413;SDS011;47279;52.426;10.488;2022-12-07T10:27:02;2.20;;;1.60;;
61413;SDS011;47279;52.426;10.488;2022-12-07T10:29:29;2.33;;;1.85;;
61413;SDS011;47279;52.426;10.488;2022-12-07T10:31:59;2.13;;;1.60;;
61413;SDS011;47279;52.426;10.488;2022-12-07T10:34:27;3.00;;;1.60;;
61413;SDS011;47279;52.426;10.488;2022-12-07T10:37:06;2.95;;;1.40;;
61413;SDS011;47279;52.426;10.488;2022-12-07T10:39:40;2.75;;;1.45;;
61413;SDS011;47279;52.426;10.488;2022-12-07T10:42:09;2.05;;;1.60;;
61413;SDS011;47279;52.426;10.488;2022-12-07T10:44:41;2.35;;;1.85;;
61413;SDS011;47279;52.426;10.488;2022-12-07T10:57:10;1.67;;;1.55;;
61413;SDS011;47279;52.426;10.488;2022-12-07T10:59:42;2.33;;;1.52;;
61413;SDS011;47279;52.426;10.488;2022-12-07T11:05:06;2.25;;;1.70;;
61413;SDS011;47279;52.426;10.488;2022-12-07T11:07:49;2.38;;;1.90;;
61413;SDS011;47279;52.426;10.488;2022-12-07T11:15:30;1.58;;;1.35;;
61413;SDS011;47279;52.426;10.488;2022-12-07T11:25:48;1.75;;;1.30;;
61413;SDS011;47279;52.426;10.488;2022-12-07T11:28:59;1.48;;;1.38;;
61413;SDS011;47279;52.426;10.488;2022-12-07T11:33:53;2.30;;;1.48;;
61413;SDS011;47279;52.426;10.488;2022-12-07T11:36:24;2.13;;;1.30;;
61413;SDS011;47279;52.426;10.488;2022-12-07T11:38:56;2.30;;;1.50;;
61413;SDS011;47279;52.426;10.488;2022-12-07T11:41:24;1.80;;;1.58;;
61413;SDS011;47279;52.426;10.488;2022-12-07T11:43:56;2.45;;;1.50;;
61413;SDS011;47279;52.426;10.488;2022-12-07T11:46:24;1.50;;;1.40;;
61413;SDS011;47279;52.426;10.488;2022-12-07T11:51:18;1.85;;;1.48;;
61413;SDS011;47279;52.426;10.488;2022-12-07T11:53:59;1.35;;;1.15;;
61413;SDS011;47279;52.426;10.488;2022-12-07T11:56:28;1.67;;;1.38;;
61413;SDS011;47279;52.426;10.488;2022-12-07T11:59:06;1.88;;;1.30;;
61413;SDS011;47279;52.426;10.488;2022-12-07T12:04:06;1.75;;;1.58;;
61413;SDS011;47279;52.426;10.488;2022-12-07T12:06:42;3.00;;;1.38;;
61413;SDS011;47279;52.426;10.488;2022-12-07T12:21:36;1.67;;;1.45;;
61413;SDS011;47279;52.426;10.488;2022-12-07T12:24:04;1.45;;;1.25;;
61413;SDS011;47279;52.426;10.488;2022-12-07T12:26:33;2.08;;;1.42;;
61413;SDS011;47279;52.426;10.488;2022-12-07T12:29:05;1.55;;;1.40;;
61413;SDS011;47279;52.426;10.488;2022-12-07T12:31:37;2.25;;;1.40;;
61413;SDS011;47279;52.426;10.488;2022-12-07T12:34:19;1.70;;;1.17;;
61413;SDS011;47279;52.426;10.488;2022-12-07T12:36:50;2.10;;;1.58;;
61413;SDS011;47279;52.426;10.488;2022-12-07T12:39:17;1.67;;;1.30;;
61413;SDS011;47279;52.426;10.488;2022-12-07T12:46:48;1.85;;;1.48;;
61413;SDS011;47279;52.426;10.488;2022-12-07T12:54:14;2.05;;;1.38;;
61413;SDS011;47279;52.426;10.488;2022-12-07T12:56:41;2.53;;;1.33;;
61413;SDS011;47279;52.426;10.488;2022-12-07T13:01:47;1.40;;;1.23;;
61413;SDS011;47279;52.426;10.488;2022-12-07T13:04:36;1.27;;;1.17;;
61413;SDS011;47279;52.426;10.488;2022-12-07T13:06:59;1.80;;;1.17;;
61413;SDS011;47279;52.426;10.488;2022-12-07T13:09:26;2.42;;;1.48;;
61413;SDS011;47279;52.426;10.488;2022-12-07T13:12:01;1.38;;;1.10;;
61413;SDS011;47279;52.426;10.488;2022-12-07T13:17:09;1.67;;;1.30;;
61413;SDS011;47279;52.426;10.488;2022-12-07T13:24:59;1.40;;;1.20;;
61413;SDS011;47279;52.426;10.488;2022-12-07T13:27:28;2.42;;;1.10;;
61413;SDS011;47279;52.426;10.488;2022-12-07T13:29:56;1.83;;;1.58;;
61413;SDS011;47279;52.426;10.488;2022-12-07T13:32:26;1.65;;;1.20;;
61413;SDS011;47279;52.426;10.488;2022-12-07T13:34:52;2.08;;;1.10;;
61413;SDS011;47279;52.426;10.488;2022-12-07T13:37:26;1.42;;;1.20;;
61413;SDS011;47279;52.426;10.488;2022-12-07T13:39:53;1.27;;;1.13;;
61413;SDS011;47279;52.426;10.488;2022-12-07T13:42:30;1.98;;;1.08;;
61413;SDS011;47279;52.426;10.488;2022-12-07T13:44:57;1.30;;;1.13;;
61413;SDS011;47279;52.426;10.488;2022-12-07T13:47:43;1.63;;;1.20;;
61413;SDS011;47279;52.426;10.488;2022-12-07T13:50:23;1.30;;;1.00;;
61413;SDS011;47279;52.426;10.488;2022-12-07T13:52:49;1.27;;;1.17;;
61413;SDS011;47279;52.426;10.488;2022-12-07T13:55:16;1.65;;;1.35;;
61413;SDS011;47279;52.426;10.488;2022-12-07T13:57:42;2.10;;;1.20;;
61413;SDS011;47279;52.426;10.488;2022-12-07T14:00:14;1.25;;;1.10;;
61413;SDS011;47279;52.426;10.488;2022-12-07T14:03:01;2.00;;;1.23;;
61413;SDS011;47279;52.426;10.488;2022-12-07T14:08:00;1.98;;;1.10;;
61413;SDS011;47279;52.426;10.488;2022-12-07T14:10:27;1.48;;;1.25;;
61413;SDS011;47279;52.426;10.488;2022-12-07T14:12:54;1.55;;;1.45;;
61413;SDS011;47279;52.426;10.488;2022-12-07T14:15:41;1.30;;;1.20;;
61413;SDS011;47279;52.426;10.488;2022-12-07T14:18:24;1.40;;;1.10;;
61413;SDS011;47279;52.426;10.488;2022-12-07T14:20:52;2.42;;;1.20;;
61413;SDS011;47279;52.426;10.488;2022-12-07T14:23:27;2.03;;;1.20;;
61413;SDS011;47279;52.426;10.488;2022-12-07T14:25:53;1.70;;;1.20;;
61413;SDS011;47279;52.426;10.488;2022-12-07T14:28:29;1.40;;;1.30;;
61413;SDS011;47279;52.426;10.488;2022-12-07T14:30:56;1.58;;;1.20;;
61413;SDS011;47279;52.426;10.488;2022-12-07T14:33:21;1.38;;;1.00;;
61413;SDS011;47279;52.426;10.488;2022-12-07T14:35:48;1.63;;;1.15;;
61413;SDS011;47279;52.426;10.488;2022-12-07T14:38:14;2.17;;;1.25;;
61413;SDS011;47279;52.426;10.488;2022-12-07T14:40:40;2.50;;;1.20;;
61413;SDS011;47279;52.426;10.488;2022-12-07T14:43:14;1.30;;;1.10;;
61413;SDS011;47279;52.426;10.488;2022-12-07T14:45:41;1.25;;;1.13;;
61413;SDS011;47279;52.426;10.488;2022-12-07T14:48:07;1.35;;;1.05;;
61413;SDS011;47279;52.426;10.488;2022-12-07T14:50:35;1.15;;;0.95;;
61413;SDS011;47279;52.426;10.488;2022-12-07T14:53:03;1.35;;;1.13;;
61413;SDS011;47279;52.426;10.488;2022-12-07T14:55:32;1.00;;;1.00;;
61413;SDS011;47279;52.426;10.488;2022-12-07T14:57:58;1.90;;;1.27;;
61413;SDS011;47279;52.426;10.488;2022-12-07T15:00:25;1.50;;;1.33;;
61413;SDS011;47279;52.426;10.488;2022-12-07T15:02:51;1.75;;;1.15;;
61413;SDS011;47279;52.426;10.488;2022-12-07T15:05:18;1.63;;;1.27;;
61413;SDS011;47279;52.426;10.488;2022-12-07T15:07:44;1.58;;;1.30;;
61413;SDS011;47279;52.426;10.488;2022-12-07T15:10:18;1.50;;;1.20;;
61413;SDS011;47279;52.426;10.488;2022-12-07T15:12:44;1.15;;;1.05;;
61413;SDS011;47279;52.426;10.488;2022-12-07T15:15:11;1.02;;;1.00;;
61413;SDS011;47279;52.426;10.488;2022-12-07T15:17:37;2.95;;;1.25;;
61413;SDS011;47279;52.426;10.488;2022-12-07T15:20:03;1.30;;;1.10;;
61413;SDS011;47279;52.426;10.488;2022-12-07T15:22:30;2.17;;;1.20;;
61413;SDS011;47279;52.426;10.488;2022-12-07T15:24:56;2.03;;;1.20;;
61413;SDS011;47279;52.426;10.488;2022-12-07T15:27:22;1.52;;;1.30;;
61413;SDS011;47279;52.426;10.488;2022-12-07T15:29:48;2.70;;;1.50;;
61413;SDS011;47279;52.426;10.488;2022-12-07T15:32:14;2.25;;;1.33;;
61413;SDS011;47279;52.426;10.488;2022-12-07T15:34:40;2.08;;;1.23;;
61413;SDS011;47279;52.426;10.488;2022-12-07T15:37:06;1.48;;;1.23;;
61413;SDS011;47279;52.426;10.488;2022-12-07T15:39:32;1.60;;;1.30;;
61413;SDS011;47279;52.426;10.488;2022-12-07T15:41:58;1.58;;;1.10;;
61413;SDS011;47279;52.426;10.488;2022-12-07T15:44:24;1.20;;;1.10;;
61413;SDS011;47279;52.426;10.488;2022-12-07T15:47:09;1.35;;;1.13;;
61413;SDS011;47279;52.426;10.488;2022-12-07T15:49:35;1.42;;;1.30;;
61413;SDS011;47279;52.426;10.488;2022-12-07T15:52:01;1.67;;;1.10;;
61413;SDS011;47279;52.426;10.488;2022-12-07T15:54:27;2.42;;;0.90;;
61413;SDS011;47279;52.426;10.488;2022-12-07T15:56:54;0.80;;;0.80;;
61413;SDS011;47279;52.426;10.488;2022-12-07T15:59:20;1.60;;;1.20;;
61413;SDS011;47279;52.426;10.488;2022-12-07T16:01:46;2.22;;;1.15;;
61413;SDS011;47279;52.426;10.488;2022-12-07T16:04:12;1.42;;;1.20;;
61413;SDS011;47279;52.426;10.488;2022-12-07T16:06:38;1.25;;;0.90;;
61413;SDS011;47279;52.426;10.488;2022-12-07T16:09:04;1.10;;;1.00;;
61413;SDS011;47279;52.426;10.488;2022-12-07T16:11:31;1.45;;;1.10;;